| time (UTC) | temp F | wind direction | speed knots | gust knots | rain 1hr in | rain 24hr in | rain mn in | humidity % | barometer mb |
| 20260509201505 | 64 | 44 | 1.7 | 1.7 | 0.00 | 0.02 | 0.02 | 73 | 1010.8 |
| 20260509201003 | 64 | 65 | 1.7 | 3.5 | 0.00 | 0.02 | 0.02 | 74 | 1010.8 |
| 20260509200458 | 63 | 56 | 2.6 | 3.5 | 0.00 | 0.02 | 0.02 | 73 | 1010.7 |
| 20260509195954 | 63 | 52 | 2.6 | 3.5 | 0.00 | 0.02 | 0.02 | 75 | 1010.8 |
| 20260509195450 | 63 | 62 | 2.6 | 5.2 | 0.00 | 0.02 | 0.02 | 74 | 1011.0 |
| 20260509194949 | 63 | 61 | 2.6 | 2.6 | 0.00 | 0.02 | 0.02 | 76 | 1010.9 |
| 20260509194445 | 63 | 74 | 2.6 | 3.5 | 0.00 | 0.02 | 0.02 | 74 | 1011.0 |
| 20260509193942 | 64 | 76 | 3.5 | 3.5 | 0.00 | 0.02 | 0.02 | 72 | 1010.8 |
| 20260509193442 | 64 | 82 | 2.6 | 5.2 | 0.00 | 0.02 | 0.02 | 73 | 1011.1 |
| 20260509192938 | 64 | 53 | 0.9 | 2.6 | 0.00 | 0.02 | 0.02 | 72 | 1011.1 |
| 20260509192435 | 64 | 47 | 2.6 | 3.5 | 0.00 | 0.02 | 0.02 | 73 | 1011.1 |
| 20260509191930 | 63 | 109 | 1.7 | 2.6 | 0.00 | 0.02 | 0.02 | 73 | 1011.1 |
| 20260509191425 | 63 | 82 | 1.7 | 2.6 | 0.00 | 0.02 | 0.02 | 73 | 1011.2 |
| 20260509190922 | 63 | 57 | 1.7 | 1.7 | 0.00 | 0.02 | 0.02 | 73 | 1011.1 |
| 20260509190419 | 62 | 63 | 0.9 | 1.7 | 0.00 | 0.02 | 0.02 | 74 | 1011.2 |
| 20260509185917 | 62 | 63 | 1.7 | 2.6 | 0.00 | 0.02 | 0.02 | 73 | 1011.2 |
| 20260509185414 | 62 | 39 | 0.9 | 2.6 | 0.00 | 0.02 | 0.02 | 75 | 1011.5 |
| 20260509184911 | 62 | 33 | 0.0 | 0.0 | 0.00 | 0.02 | 0.02 | 74 | 1011.1 |
| 20260509184408 | 62 | 356 | 0.9 | 2.6 | 0.00 | 0.02 | 0.02 | 74 | 1011.2 |
| 20260509183905 | 62 | 336 | 0.0 | 0.9 | 0.00 | 0.02 | 0.02 | 77 | 1011.1 |
| 20260509183359 | 61 | 357 | 0.0 | 0.0 | 0.00 | 0.02 | 0.02 | 75 | 1011.2 |
| 20260509182855 | 61 | 60 | 0.0 | 0.0 | 0.00 | 0.02 | 0.02 | 77 | 1011.1 |
| 20260509182352 | 61 | 2 | 0.0 | 0.0 | 0.00 | 0.02 | 0.02 | 77 | 1011.3 |
| 20260509181850 | 61 | 327 | 0.0 | 0.0 | 0.00 | 0.02 | 0.02 | 76 | 1011.5 |
| 20260509181347 | 62 | 327 | 0.0 | 0.9 | 0.00 | 0.02 | 0.02 | 77 | 1011.3 |
| 20260509180844 | 61 | 335 | 0.0 | 0.0 | 0.00 | 0.02 | 0.02 | 80 | 1011.3 |
| 20260509180340 | 61 | 335 | 0.9 | 1.7 | 0.00 | 0.02 | 0.02 | 79 | 1011.5 |
| 20260509175837 | 60 | 60 | 0.9 | 1.7 | 0.00 | 0.02 | 0.02 | 80 | 1011.4 |
| 20260509175333 | 60 | 54 | 0.9 | 1.7 | 0.00 | 0.02 | 0.02 | 82 | 1011.4 |
| 20260509174829 | 60 | 26 | 1.7 | 2.6 | 0.00 | 0.02 | 0.02 | 83 | 1011.5 |
| 20260509174325 | 60 | 7 | 1.7 | 1.7 | 0.00 | 0.02 | 0.02 | 85 | 1011.5 |
| 20260509173821 | 60 | 56 | 1.7 | 1.7 | 0.00 | 0.02 | 0.02 | 86 | 1011.6 |
| 20260509173317 | 60 | 31 | 0.0 | 0.9 | 0.00 | 0.02 | 0.02 | 86 | 1011.7 |
| 20260509172813 | 59 | 14 | 0.0 | 0.9 | 0.00 | 0.02 | 0.02 | 86 | 1011.8 |
| 20260509172310 | 59 | 331 | 0.9 | 1.7 | 0.00 | 0.02 | 0.02 | 88 | 1011.9 |
| 20260509171806 | 59 | 49 | 2.6 | 2.6 | 0.00 | 0.02 | 0.02 | 88 | 1012.1 |
| 20260509171302 | 59 | 321 | 0.0 | 1.7 | 0.00 | 0.02 | 0.02 | 89 | 1012.0 |
| 20260509170759 | 58 | 339 | 1.7 | 2.6 | 0.00 | 0.02 | 0.02 | 88 | 1012.1 |
| 20260509170254 | 58 | 330 | 1.7 | 1.7 | 0.00 | 0.02 | 0.02 | 89 | 1012.0 |
| 20260509165754 | 58 | 9 | 0.9 | 0.9 | 0.00 | 0.02 | 0.02 | 89 | 1012.0 |
| 20260509165249 | 58 | 350 | 0.9 | 1.7 | 0.00 | 0.02 | 0.02 | 88 | 1012.2 |
| 20260509164745 | 58 | 55 | 0.0 | 0.0 | 0.00 | 0.02 | 0.02 | 88 | 1012.1 |
| 20260509164241 | 58 | 60 | 0.0 | 0.9 | 0.00 | 0.02 | 0.02 | 89 | 1012.2 |
| 20260509163738 | 58 | 89 | 1.7 | 1.7 | 0.00 | 0.02 | 0.02 | 88 | 1012.4 |
| 20260509163234 | 58 | 55 | 0.9 | 1.7 | 0.00 | 0.02 | 0.02 | 89 | 1012.4 |
| 20260509162733 | 57 | 63 | 0.9 | 1.7 | 0.00 | 0.02 | 0.02 | 89 | 1012.4 |
| 20260509162227 | 57 | 76 | 0.0 | 0.0 | 0.00 | 0.02 | 0.02 | 90 | 1012.6 |
| 20260509161723 | 57 | 127 | 0.0 | 0.0 | 0.00 | 0.02 | 0.02 | 90 | 1012.8 |
| 20260509161220 | 57 | 109 | 1.7 | 1.7 | 0.00 | 0.02 | 0.02 | 90 | 1012.7 |
| 20260509160721 | 56 | 64 | 0.0 | 0.0 | 0.00 | 0.02 | 0.02 | 91 | 1012.7 |
| 20260509160217 | 57 | 111 | 0.9 | 0.9 | 0.00 | 0.02 | 0.02 | 91 | 1012.6 |
| 20260509155712 | 57 | 89 | 0.0 | 0.0 | 0.00 | 0.02 | 0.02 | 90 | 1012.7 |
| 20260509155209 | 56 | 72 | 0.0 | 0.9 | 0.00 | 0.02 | 0.02 | 91 | 1012.7 |
| 20260509154705 | 56 | 333 | 0.9 | 1.7 | 0.00 | 0.02 | 0.02 | 91 | 1012.8 |
| 20260509154202 | 56 | 32 | 0.9 | 1.7 | 0.00 | 0.02 | 0.02 | 91 | 1012.5 |
| 20260509153659 | 56 | 38 | 1.7 | 1.7 | 0.00 | 0.02 | 0.02 | 90 | 1012.7 |
| 20260509153156 | 56 | 124 | 0.9 | 2.6 | 0.00 | 0.02 | 0.02 | 91 | 1012.8 |
| 20260509152652 | 56 | 112 | 0.0 | 0.0 | 0.00 | 0.02 | 0.02 | 90 | 1013.1 |
| 20260509152149 | 56 | 36 | 0.0 | 0.9 | 0.00 | 0.02 | 0.02 | 91 | 1013.0 |
| 20260509151645 | 55 | 57 | 0.0 | 0.9 | 0.00 | 0.02 | 0.02 | 91 | 1012.9 |
| 20260509151143 | 56 | 107 | 0.0 | 0.9 | 0.00 | 0.02 | 0.02 | 90 | 1012.8 |
| 20260509150641 | 56 | 66 | 0.9 | 1.7 | 0.00 | 0.02 | 0.02 | 90 | 1012.9 |
| 20260509150139 | 56 | 104 | 0.9 | 1.7 | 0.00 | 0.02 | 0.02 | 89 | 1012.8 |
| 20260509145635 | 55 | 76 | 0.0 | 0.0 | 0.00 | 0.02 | 0.02 | 89 | 1012.8 |
| 20260509145130 | 55 | 124 | 0.0 | 0.0 | 0.00 | 0.02 | 0.02 | 90 | 1012.7 |
| 20260509144627 | 55 | 336 | 0.0 | 0.0 | 0.00 | 0.02 | 0.02 | 91 | 1012.8 |
| 20260509144124 | 55 | 322 | 0.0 | 0.0 | 0.00 | 0.02 | 0.02 | 92 | 1013.1 |
| 20260509143621 | 54 | 337 | 0.9 | 1.7 | 0.00 | 0.02 | 0.02 | 94 | 1013.0 |
| 20260509143119 | 54 | 340 | 0.9 | 0.9 | 0.00 | 0.02 | 0.02 | 94 | 1013.1 |
| 20260509142613 | 53 | 350 | 1.7 | 2.6 | 0.00 | 0.02 | 0.02 | 94 | 1013.0 |
| 20260509142110 | 53 | 23 | 1.7 | 1.7 | 0.00 | 0.02 | 0.02 | 94 | 1012.9 |
| 20260509141606 | 53 | 64 | 1.7 | 1.7 | 0.00 | 0.02 | 0.02 | 95 | 1013.0 |
| 20260509141103 | 53 | 47 | 0.9 | 0.9 | 0.00 | 0.02 | 0.02 | 95 | 1013.0 |
| 20260509140600 | 53 | 53 | 0.0 | 0.9 | 0.00 | 0.02 | 0.02 | 95 | 1013.0 |
| 20260509140058 | 53 | 62 | 0.0 | 1.7 | 0.00 | 0.02 | 0.02 | 95 | 1013.0 |
| 20260509135555 | 53 | 63 | 1.7 | 1.7 | 0.07 | 0.02 | 0.02 | 95 | 1013.1 |
| 20260509135052 | 52 | 81 | 0.9 | 1.7 | 0.07 | 0.02 | 0.02 | 95 | 1013.2 |
| 20260509134549 | 53 | 71 | 0.9 | 1.7 | 0.00 | 0.01 | 0.01 | 95 | 1013.2 |
| 20260509134047 | 52 | 54 | 0.9 | 1.7 | 0.00 | 0.01 | 0.01 | 94 | 1013.3 |
| 20260509133543 | 52 | 26 | 0.0 | 0.0 | 0.00 | 0.01 | 0.01 | 94 | 1013.1 |
| 20260509133041 | 52 | 25 | 0.0 | 0.9 | 0.00 | 0.01 | 0.01 | 95 | 1013.2 |
| 20260509132540 | 52 | 27 | 0.0 | 0.0 | 0.00 | 0.01 | 0.01 | 95 | 1013.2 |
| 20260509132038 | 52 | 26 | 0.0 | 0.0 | 0.00 | 0.01 | 0.01 | 95 | 1013.1 |
| 20260509131533 | 51 | 27 | 0.0 | 0.0 | 0.00 | 0.01 | 0.01 | 95 | 1013.3 |
| 20260509131030 | 51 | 27 | 0.0 | 0.0 | 0.05 | 0.01 | 0.01 | 95 | 1012.9 |
| 20260509130525 | 51 | 27 | 0.0 | 0.0 | 0.05 | 0.01 | 0.01 | 95 | 1013.0 |
| 20260509130023 | 51 | 27 | 0.9 | 0.9 | 0.00 | 0.00 | 0.00 | 95 | 1013.1 |
| 20260509125519 | 51 | 47 | 0.0 | 0.0 | 0.00 | 0.00 | 0.00 | 95 | 1012.9 |
| 20260509125016 | 51 | 76 | 0.0 | 0.0 | 0.00 | 0.00 | 0.00 | 95 | 1013.0 |
| 20260509124512 | 51 | 76 | 0.0 | 0.0 | 0.00 | 0.00 | 0.00 | 95 | 1012.8 |
| 20260509124010 | 51 | 76 | 0.0 | 0.0 | 0.00 | 0.00 | 0.00 | 95 | 1013.1 |
| 20260509123508 | 51 | 76 | 0.0 | 0.0 | 0.00 | 0.00 | 0.00 | 95 | 1013.0 |
| 20260509123003 | 51 | 76 | 0.0 | 0.0 | 0.00 | 0.00 | 0.00 | 95 | 1012.9 |
| 20260509122500 | 51 | 76 | 0.0 | 0.0 | 0.00 | 0.00 | 0.00 | 94 | 1012.9 |
| 20260509121957 | 51 | 76 | 0.0 | 0.0 | 0.00 | 0.00 | 0.00 | 94 | 1013.0 |
| 20260509121453 | 51 | 96 | 0.0 | 0.0 | 0.00 | 0.00 | 0.00 | 94 | 1013.0 |
| 20260509120952 | 51 | 105 | 0.0 | 0.0 | 0.00 | 0.00 | 0.00 | 94 | 1013.0 |
| 20260509120449 | 51 | 128 | 0.0 | 0.0 | 0.00 | 0.00 | 0.00 | 94 | 1012.8 |
| 20260509115947 | 51 | 293 | 0.0 | 0.0 | 0.00 | 0.00 | 0.00 | 94 | 1013.0 |
| 20260509115444 | 51 | 293 | 0.0 | 0.0 | 0.00 | 0.00 | 0.00 | 94 | 1013.0 |
| 20260509114941 | 51 | 293 | 0.0 | 0.0 | 0.00 | 0.00 | 0.00 | 93 | 1013.0 |
| 20260509114440 | 51 | 293 | 0.0 | 0.0 | 0.00 | 0.00 | 0.00 | 93 | 1012.9 |
| 20260509113939 | 51 | 294 | 0.0 | 0.0 | 0.00 | 0.00 | 0.00 | 92 | 1012.9 |
| 20260509113436 | 50 | 294 | 0.0 | 0.0 | 0.00 | 0.00 | 0.00 | 93 | 1012.8 |
| 20260509112933 | 51 | 293 | 0.0 | 0.0 | 0.00 | 0.00 | 0.00 | 93 | 1012.8 |
| 20260509112430 | 50 | 292 | 0.0 | 0.0 | 0.00 | 0.00 | 0.00 | 93 | 1012.9 |
| 20260509111927 | 50 | 292 | 0.0 | 0.0 | 0.00 | 0.00 | 0.00 | 93 | 1012.7 |
| 20260509111424 | 50 | 292 | 0.9 | 0.9 | 0.00 | 0.00 | 0.00 | 93 | 1012.7 |
| 20260509110921 | 50 | 289 | 0.0 | 0.0 | 0.00 | 0.00 | 0.00 | 93 | 1012.7 |
| 20260509110417 | 50 | 289 | 0.0 | 0.0 | 0.00 | 0.00 | 0.00 | 94 | 1012.9 |
| 20260509105915 | 50 | 289 | 0.0 | 0.0 | 0.00 | 0.00 | 0.00 | 94 | 1013.0 |
| 20260509105414 | 50 | 289 | 0.9 | 1.7 | 0.00 | 0.00 | 0.00 | 94 | 1012.8 |
| 20260509104910 | 50 | 222 | 0.0 | 0.0 | 0.00 | 0.00 | 0.00 | 93 | 1012.7 |
| 20260509104407 | 50 | 222 | 0.0 | 0.0 | 0.00 | 0.00 | 0.00 | 93 | 1012.6 |
| 20260509103904 | 50 | 127 | 0.0 | 0.0 | 0.00 | 0.00 | 0.00 | 93 | 1012.8 |
| 20260509103401 | 50 | 127 | 0.0 | 0.0 | 0.00 | 0.00 | 0.00 | 92 | 1012.5 |
| 20260509102900 | 50 | 28 | 0.0 | 0.0 | 0.00 | 0.00 | 0.00 | 94 | 1012.5 |
| 20260509102357 | 50 | 28 | 0.0 | 0.0 | 0.00 | 0.00 | 0.00 | 94 | 1012.4 |
| 20260509101853 | 50 | 28 | 0.0 | 0.0 | 0.00 | 0.00 | 0.00 | 93 | 1012.4 |
| 20260509101349 | 50 | 28 | 0.0 | 0.0 | 0.00 | 0.00 | 0.00 | 93 | 1012.6 |
| 20260509100847 | 50 | 28 | 0.0 | 0.0 | 0.00 | 0.00 | 0.00 | 93 | 1012.4 |
| 20260509100344 | 49 | 18 | 0.0 | 0.0 | 0.00 | 0.00 | 0.00 | 92 | 1012.3 |
| 20260509095841 | 49 | 28 | 0.0 | 0.0 | 0.00 | 0.00 | 0.00 | 92 | 1012.2 |
| 20260509095338 | 50 | 28 | 0.0 | 0.0 | 0.00 | 0.00 | 0.00 | 93 | 1012.3 |
| 20260509094835 | 50 | 28 | 0.0 | 0.0 | 0.00 | 0.00 | 0.00 | 93 | 1012.3 |
| 20260509094331 | 50 | 18 | 0.0 | 0.0 | 0.00 | 0.00 | 0.00 | 93 | 1012.3 |
| 20260509093829 | 50 | 28 | 0.0 | 0.0 | 0.00 | 0.00 | 0.00 | 93 | 1012.3 |
| 20260509093326 | 50 | 28 | 0.0 | 0.0 | 0.00 | 0.00 | 0.00 | 93 | 1012.3 |
| 20260509092825 | 49 | 18 | 0.0 | 0.0 | 0.00 | 0.00 | 0.00 | 93 | 1012.2 |
| 20260509092322 | 50 | 18 | 0.0 | 0.0 | 0.00 | 0.00 | 0.00 | 93 | 1012.3 |
| 20260509091820 | 50 | 18 | 0.0 | 0.0 | 0.00 | 0.00 | 0.00 | 93 | 1012.4 |
| 20260509091317 | 50 | 28 | 0.0 | 0.0 | 0.00 | 0.00 | 0.00 | 93 | 1012.4 |
| 20260509090814 | 50 | 106 | 0.0 | 0.0 | 0.00 | 0.00 | 0.00 | 92 | 1012.5 |
| 20260509090311 | 50 | 106 | 0.0 | 0.0 | 0.00 | 0.00 | 0.00 | 92 | 1012.5 |
| 20260509085808 | 50 | 126 | 0.0 | 0.9 | 0.00 | 0.00 | 0.00 | 92 | 1012.5 |
| 20260509085306 | 50 | 209 | 0.0 | 0.0 | 0.00 | 0.00 | 0.00 | 91 | 1012.5 |
| 20260509084802 | 49 | 294 | 0.9 | 0.9 | 0.00 | 0.00 | 0.00 | 90 | 1012.5 |
| 20260509084259 | 49 | 293 | 0.0 | 0.0 | 0.00 | 0.00 | 0.00 | 92 | 1012.3 |
| 20260509083757 | 49 | 293 | 0.0 | 0.0 | 0.00 | 0.00 | 0.00 | 91 | 1012.6 |
| 20260509083253 | 49 | 293 | 0.9 | 0.9 | 0.00 | 0.00 | 0.00 | 90 | 1012.4 |
| 20260509082750 | 49 | 293 | 0.0 | 0.9 | 0.00 | 0.00 | 0.00 | 91 | 1012.3 |
| 20260509082246 | 49 | 287 | 0.0 | 0.0 | 0.00 | 0.00 | 0.00 | 91 | 1012.3 |
| 20260509081744 | 49 | 286 | 0.0 | 0.0 | 0.00 | 0.00 | 0.00 | 91 | 1012.4 |
| 20260509081241 | 49 | 286 | 0.0 | 0.0 | 0.00 | 0.00 | 0.00 | 91 | 1012.4 |
| 20260509080739 | 49 | 277 | 0.0 | 0.0 | 0.00 | 0.00 | 0.00 | 91 | 1012.3 |
| 20260509080236 | 49 | 277 | 0.0 | 0.0 | 0.00 | 0.00 | 0.00 | 92 | 1012.3 |
| 20260509075734 | 49 | 277 | 0.9 | 1.7 | 0.00 | 0.00 | 0.00 | 91 | 1012.4 |
| 20260509075232 | 49 | 295 | 0.0 | 0.0 | 0.00 | 0.00 | 0.00 | 91 | 1012.4 |
| 20260509074728 | 49 | 295 | 0.0 | 0.0 | 0.00 | 0.00 | 0.00 | 91 | 1012.4 |
| 20260509074226 | 49 | 296 | 0.0 | 0.0 | 0.00 | 0.00 | 0.00 | 91 | 1012.2 |
| 20260509073722 | 49 | 296 | 0.0 | 0.0 | 0.00 | 0.00 | 0.00 | 90 | 1012.3 |
| 20260509073219 | 49 | 296 | 0.0 | 0.0 | 0.00 | 0.00 | 0.00 | 90 | 1012.4 |
| 20260509072715 | 49 | 295 | 0.0 | 0.0 | 0.00 | 0.00 | 0.00 | 92 | 1012.3 |
| 20260509072212 | 49 | 295 | 0.0 | 0.0 | 0.00 | 0.00 | 0.00 | 92 | 1012.2 |
| 20260509071709 | 49 | 295 | 0.0 | 0.9 | 0.00 | 0.00 | 0.00 | 91 | 1012.2 |
| 20260509071206 | 49 | 295 | 0.0 | 0.0 | 0.00 | 0.00 | 0.00 | 91 | 1012.3 |
| 20260509070703 | 49 | 295 | 0.0 | 0.9 | 0.00 | 0.00 | 0.00 | 91 | 1012.3 |
| 20260509070159 | 49 | 257 | 0.0 | 0.0 | 0.00 | 0.00 | 0.00 | 92 | 1012.5 |
| 20260509065655 | 48 | 229 | 0.0 | 0.0 | 0.00 | 0.00 | 0.00 | 92 | 1012.3 |
| 20260509065152 | 48 | 292 | 0.0 | 0.0 | 0.00 | 0.00 | 0.00 | 92 | 1012.3 |
| 20260509064649 | 47 | 309 | 0.0 | 0.0 | 0.00 | 0.00 | 0.00 | 91 | 1012.3 |
| 20260509064146 | 49 | 309 | 0.0 | 0.0 | 0.00 | 0.00 | 0.00 | 91 | 1012.1 |
| 20260509063643 | 49 | 306 | 0.0 | 0.9 | 0.00 | 0.00 | 0.00 | 90 | 1012.3 |
| 20260509063140 | 51 | 260 | 0.0 | 0.9 | 0.00 | 0.00 | 0.00 | 89 | 1012.5 |
| 20260509062637 | 51 | 347 | 0.0 | 0.0 | 0.00 | 0.00 | 0.00 | 89 | 1012.5 |
| 20260509062134 | 51 | 221 | 0.0 | 0.0 | 0.00 | 0.00 | 0.00 | 88 | 1012.5 |
| 20260509061631 | 51 | 266 | 0.0 | 0.0 | 0.00 | 0.00 | 0.00 | 90 | 1012.4 |
| 20260509061128 | 51 | 280 | 0.0 | 0.0 | 0.00 | 0.00 | 0.00 | 90 | 1012.4 |
| 20260509060626 | 51 | 316 | 0.0 | 0.9 | 0.00 | 0.00 | 0.00 | 89 | 1012.4 |
| 20260509060121 | 52 | 357 | 0.0 | 0.9 | 0.00 | 0.00 | 0.00 | 88 | 1012.5 |
| 20260509055617 | 52 | 34 | 0.0 | 0.0 | 0.00 | 0.00 | 0.00 | 88 | 1012.6 |
| 20260509055113 | 52 | 30 | 0.0 | 0.0 | 0.00 | 0.00 | 0.00 | 87 | 1012.6 |
| 20260509054610 | 53 | 30 | 0.0 | 0.0 | 0.00 | 0.00 | 0.00 | 84 | 1012.8 |
| 20260509054108 | 53 | 30 | 0.0 | 0.0 | 0.00 | 0.00 | 0.00 | 83 | 1012.6 |
| 20260509053606 | 52 | 30 | 0.0 | 0.0 | 0.00 | 0.00 | 0.00 | 82 | 1012.7 |
| 20260509053103 | 52 | 328 | 0.0 | 0.0 | 0.00 | 0.00 | 0.00 | 83 | 1012.7 |
| 20260509052601 | 52 | 358 | 0.0 | 0.0 | 0.00 | 0.00 | 0.00 | 87 | 1013.0 |
| 20260509052058 | 52 | 319 | 0.0 | 0.0 | 0.00 | 0.00 | 0.00 | 88 | 1013.0 |
| 20260509051556 | 52 | 319 | 0.0 | 0.0 | 0.00 | 0.00 | 0.00 | 87 | 1012.9 |
| 20260509051053 | 52 | 350 | 0.0 | 0.0 | 0.00 | 0.00 | 0.00 | 87 | 1013.0 |
| 20260509050550 | 52 | 352 | 0.0 | 0.0 | 0.00 | 0.00 | 0.00 | 87 | 1012.9 |
| 20260509050046 | 52 | 358 | 0.0 | 0.0 | 0.00 | 0.00 | 0.00 | 86 | 1013.0 |
| 20260509045544 | 53 | 358 | 0.0 | 0.0 | 0.00 | 0.00 | 0.00 | 86 | 1013.1 |
| 20260509045040 | 53 | 358 | 0.0 | 0.0 | 0.00 | 0.00 | 0.00 | 84 | 1012.9 |
| 20260509044538 | 53 | 12 | 0.0 | 0.0 | 0.00 | 0.00 | 0.00 | 85 | 1012.9 |
| 20260509044035 | 53 | 347 | 0.0 | 0.0 | 0.00 | 0.00 | 0.00 | 85 | 1012.9 |
| 20260509043531 | 53 | 290 | 0.0 | 0.9 | 0.00 | 0.00 | 0.00 | 87 | 1012.9 |
| 20260509043027 | 53 | 14 | 0.0 | 0.0 | 0.00 | 0.00 | 0.00 | 86 | 1012.7 |
| 20260509042523 | 53 | 292 | 0.0 | 0.0 | 0.00 | 0.00 | 0.00 | 85 | 1012.8 |
| 20260509042020 | 53 | 292 | 0.0 | 0.0 | 0.00 | 0.00 | 0.00 | 85 | 1012.9 |
| 20260509041517 | 53 | 305 | 0.0 | 0.0 | 0.00 | 0.00 | 0.00 | 84 | 1012.9 |
| 20260509041014 | 53 | 276 | 0.0 | 0.0 | 0.00 | 0.00 | 0.00 | 85 | 1013.0 |
| 20260509040513 | 53 | 225 | 0.0 | 0.0 | 0.00 | 0.00 | 0.00 | 85 | 1013.1 |
| 20260509040009 | 53 | 225 | 0.0 | 0.0 | 0.00 | 0.00 | 0.00 | 85 | 1013.0 |
| 20260509035506 | 53 | 276 | 0.0 | 0.0 | 0.00 | 0.00 | 0.00 | 83 | 1013.2 |
| 20260509035003 | 54 | 344 | 0.0 | 0.0 | 0.00 | 0.00 | 0.00 | 83 | 1013.0 |
| 20260509034501 | 54 | 344 | 0.0 | 0.0 | 0.00 | 0.00 | 0.00 | 82 | 1012.9 |
| 20260509033957 | 54 | 343 | 0.0 | 0.0 | 0.00 | 0.00 | 0.00 | 82 | 1013.0 |
| 20260509033454 | 54 | 280 | 0.0 | 0.0 | 0.00 | 0.00 | 0.00 | 82 | 1013.0 |
| 20260509032951 | 53 | 223 | 0.0 | 0.0 | 0.00 | 0.00 | 0.00 | 80 | 1012.8 |
| 20260509032448 | 54 | 270 | 0.0 | 0.0 | 0.00 | 0.00 | 0.00 | 84 | 1012.9 |
| 20260509031946 | 54 | 350 | 0.0 | 0.0 | 0.00 | 0.00 | 0.00 | 82 | 1012.8 |
| 20260509031443 | 54 | 351 | 0.0 | 0.9 | 0.00 | 0.00 | 0.00 | 80 | 1012.9 |
| 20260509030940 | 55 | 284 | 0.0 | 0.9 | 0.00 | 0.00 | 0.00 | 79 | 1013.0 |
| 20260509030438 | 55 | 139 | 0.0 | 0.9 | 0.00 | 0.00 | 0.00 | 75 | 1012.9 |
| 20260509025935 | 54 | 337 | 0.0 | 0.0 | 0.00 | 0.00 | 0.00 | 74 | 1013.1 |
| 20260509025431 | 54 | 336 | 0.0 | 0.0 | 0.00 | 0.00 | 0.00 | 79 | 1013.1 |
| 20260509024926 | 54 | 336 | 0.0 | 0.0 | 0.00 | 0.00 | 0.00 | 78 | 1012.9 |
| 20260509024422 | 55 | 336 | 0.0 | 0.0 | 0.00 | 0.00 | 0.00 | 78 | 1013.4 |
| 20260509023919 | 54 | 336 | 0.0 | 0.0 | 0.00 | 0.00 | 0.00 | 77 | 1013.2 |
| 20260509023417 | 55 | 336 | 0.0 | 0.9 | 0.00 | 0.00 | 0.00 | 78 | 1013.3 |
| 20260509022913 | 55 | 335 | 0.9 | 0.9 | 0.00 | 0.00 | 0.00 | 77 | 1013.2 |
| 20260509022410 | 54 | 336 | 0.0 | 0.0 | 0.00 | 0.00 | 0.00 | 78 | 1013.1 |
| 20260509021908 | 54 | 335 | 0.0 | 0.0 | 0.00 | 0.00 | 0.00 | 77 | 1013.2 |
| 20260509021404 | 55 | 342 | 0.0 | 1.7 | 0.00 | 0.00 | 0.00 | 75 | 1013.2 |
| 20260509020902 | 55 | 342 | 0.0 | 0.0 | 0.00 | 0.00 | 0.00 | 76 | 1013.2 |
| 20260509020400 | 54 | 342 | 0.0 | 0.0 | 0.00 | 0.00 | 0.00 | 78 | 1013.1 |
| 20260509015857 | 54 | 342 | 0.0 | 0.0 | 0.00 | 0.00 | 0.00 | 75 | 1013.1 |
| 20260509015355 | 55 | 342 | 0.0 | 0.0 | 0.00 | 0.00 | 0.00 | 77 | 1012.8 |
| 20260509014851 | 55 | 342 | 0.0 | 0.0 | 0.00 | 0.00 | 0.00 | 76 | 1013.1 |
| 20260509014348 | 55 | 342 | 0.9 | 0.9 | 0.00 | 0.00 | 0.00 | 72 | 1012.9 |
| 20260509013845 | 55 | 342 | 0.9 | 1.7 | 0.00 | 0.00 | 0.00 | 75 | 1013.0 |
| 20260509013342 | 55 | 326 | 0.0 | 0.0 | 0.00 | 0.00 | 0.00 | 75 | 1012.7 |
| 20260509012837 | 55 | 339 | 0.0 | 0.9 | 0.00 | 0.00 | 0.00 | 75 | 1012.7 |
| 20260509012334 | 55 | 340 | 0.0 | 0.0 | 0.00 | 0.00 | 0.00 | 72 | 1012.8 |
| 20260509011832 | 55 | 330 | 0.0 | 0.0 | 0.00 | 0.00 | 0.00 | 73 | 1012.7 |
| 20260509011329 | 55 | 329 | 0.0 | 0.0 | 0.00 | 0.00 | 0.00 | 73 | 1012.5 |
| 20260509010827 | 56 | 330 | 0.0 | 0.0 | 0.00 | 0.00 | 0.00 | 75 | 1012.5 |
| 20260509010324 | 56 | 333 | 0.0 | 0.0 | 0.00 | 0.00 | 0.00 | 69 | 1012.4 |
| 20260509005816 | 56 | 333 | 1.7 | 1.7 | 0.00 | 0.00 | 0.00 | 69 | 1012.7 |
| 20260509005314 | 56 | 314 | 0.0 | 0.0 | 0.00 | 0.00 | 0.00 | 68 | 1012.5 |
| 20260509004813 | 57 | 314 | 0.0 | 0.0 | 0.00 | 0.00 | 0.00 | 65 | 1012.7 |
| 20260509004310 | 58 | 314 | 0.0 | 0.0 | 0.00 | 0.00 | 0.00 | 64 | 1012.6 |
| 20260509003808 | 57 | 290 | 0.0 | 0.0 | 0.00 | 0.00 | 0.00 | 63 | 1012.4 |
| 20260509003306 | 57 | 279 | 0.0 | 0.0 | 0.00 | 0.00 | 0.00 | 65 | 1012.7 |
| 20260509002803 | 57 | 277 | 0.0 | 0.0 | 0.00 | 0.00 | 0.00 | 67 | 1012.4 |
| 20260509002300 | 57 | 276 | 0.0 | 0.0 | 0.00 | 0.00 | 0.00 | 68 | 1012.3 |
| 20260509001758 | 57 | 276 | 0.0 | 0.0 | 0.00 | 0.00 | 0.00 | 70 | 1012.2 |
| 20260509001253 | 58 | 276 | 0.0 | 0.0 | 0.00 | 0.00 | 0.00 | 68 | 1012.5 |
| 20260509000751 | 59 | 276 | 0.0 | 0.0 | 0.00 | 0.00 | 0.00 | 66 | 1012.3 |
| 20260509000248 | 60 | 276 | 0.0 | 0.0 | 0.00 | 0.00 | 0.00 | 65 | 1012.3 |
| 20260508235745 | 62 | 276 | 0.0 | 0.0 | 0.00 | 0.00 | 0.00 | 63 | 1012.2 |
| 20260508235242 | 64 | 276 | 0.0 | 0.0 | 0.00 | 0.00 | 0.00 | 59 | 1012.3 |
| 20260508234739 | 65 | 274 | 0.0 | 0.0 | 0.00 | 0.00 | 0.00 | 47 | 1012.3 |
| 20260508234235 | 65 | 275 | 0.9 | 1.7 | 0.00 | 0.00 | 0.00 | 44 | 1012.3 |
| 20260508233729 | 65 | 268 | 0.9 | 1.7 | 0.00 | 0.00 | 0.00 | 44 | 1012.3 |
| 20260508233226 | 66 | 250 | 1.7 | 1.7 | 0.00 | 0.00 | 0.00 | 42 | 1012.3 |
| 20260508232724 | 67 | 241 | 1.7 | 2.6 | 0.00 | 0.00 | 0.00 | 40 | 1012.2 |
| 20260508232220 | 68 | 274 | 3.5 | 3.5 | 0.00 | 0.00 | 0.00 | 38 | 1012.2 |
| 20260508231718 | 68 | 276 | 1.7 | 1.7 | 0.00 | 0.00 | 0.00 | 39 | 1012.1 |
| 20260508231215 | 68 | 283 | 1.7 | 2.6 | 0.00 | 0.00 | 0.00 | 39 | 1012.0 |
| 20260508230712 | 68 | 262 | 2.6 | 3.5 | 0.00 | 0.00 | 0.00 | 37 | 1012.3 |
| 20260508230207 | 68 | 256 | 1.7 | 2.6 | 0.00 | 0.00 | 0.00 | 37 | 1012.2 |
| 20260508225706 | 68 | 275 | 3.5 | 6.1 | 0.00 | 0.00 | 0.00 | 38 | 1012.5 |
| 20260508225201 | 68 | 270 | 0.9 | 3.5 | 0.00 | 0.00 | 0.00 | 37 | 1012.2 |
| 20260508224700 | 69 | 301 | 3.5 | 6.1 | 0.00 | 0.00 | 0.00 | 36 | 1012.4 |
| 20260508224157 | 69 | 275 | 3.5 | 5.2 | 0.00 | 0.00 | 0.00 | 39 | 1012.5 |
| 20260508223654 | 69 | 242 | 7.0 | 7.8 | 0.00 | 0.00 | 0.00 | 36 | 1012.6 |
| 20260508223152 | 69 | 298 | 3.5 | 5.2 | 0.00 | 0.00 | 0.00 | 36 | 1012.6 |
| 20260508222649 | 70 | 235 | 4.3 | 8.7 | 0.00 | 0.00 | 0.00 | 37 | 1012.7 |
| 20260508222146 | 70 | 262 | 4.3 | 5.2 | 0.00 | 0.00 | 0.00 | 37 | 1012.8 |
| 20260508221642 | 69 | 307 | 2.6 | 5.2 | 0.00 | 0.00 | 0.00 | 39 | 1012.8 |
| 20260508221138 | 69 | 292 | 2.6 | 5.2 | 0.00 | 0.00 | 0.00 | 37 | 1012.6 |
| 20260508220635 | 69 | 263 | 5.2 | 7.0 | 0.00 | 0.00 | 0.00 | 36 | 1012.7 |
| 20260508220131 | 70 | 239 | 3.5 | 9.6 | 0.00 | 0.00 | 0.00 | 36 | 1012.7 |
| 20260508215628 | 72 | 312 | 2.6 | 5.2 | 0.00 | 0.00 | 0.00 | 36 | 1012.6 |
| 20260508215125 | 71 | 255 | 0.9 | 2.6 | 0.00 | 0.00 | 0.00 | 36 | 1012.9 |
| 20260508214622 | 69 | 300 | 0.9 | 3.5 | 0.00 | 0.00 | 0.00 | 38 | 1012.8 |
| 20260508214119 | 68 | 250 | 2.6 | 3.5 | 0.00 | 0.00 | 0.00 | 40 | 1012.7 |
| 20260508213616 | 69 | 277 | 4.3 | 7.0 | 0.00 | 0.00 | 0.00 | 37 | 1012.8 |
| 20260508213112 | 69 | 253 | 5.2 | 6.1 | 0.00 | 0.00 | 0.00 | 37 | 1012.9 |
| 20260508212608 | 69 | 259 | 1.7 | 2.6 | 0.00 | 0.00 | 0.00 | 40 | 1013.0 |
| 20260508212105 | 69 | 256 | 4.3 | 6.1 | 0.00 | 0.00 | 0.00 | 38 | 1012.9 |
| 20260508211600 | 67 | 263 | 3.5 | 3.5 | 0.00 | 0.00 | 0.00 | 40 | 1012.8 |
| 20260508211057 | 67 | 231 | 2.6 | 6.1 | 0.00 | 0.00 | 0.00 | 38 | 1013.2 |
| 20260508210553 | 67 | 285 | 2.6 | 5.2 | 0.00 | 0.00 | 0.00 | 41 | 1013.3 |
| 20260508210051 | 68 | 207 | 7.8 | 9.6 | 0.00 | 0.00 | 0.00 | 37 | 1013.0 |
| 20260508205548 | 69 | 221 | 2.6 | 8.7 | 0.00 | 0.00 | 0.00 | 39 | 1013.0 |
| 20260508205044 | 71 | 319 | 1.7 | 2.6 | 0.00 | 0.00 | 0.00 | 34 | 1013.2 |
| 20260508204541 | 69 | 280 | 1.7 | 6.1 | 0.00 | 0.00 | 0.00 | 38 | 1013.2 |
| 20260508204037 | 67 | 277 | 1.7 | 7.8 | 0.00 | 0.00 | 0.00 | 38 | 1013.2 |
| 20260508203533 | 66 | 292 | 1.7 | 5.2 | 0.00 | 0.00 | 0.00 | 38 | 1013.5 |
| 20260508203029 | 67 | 271 | 1.7 | 2.6 | 0.00 | 0.00 | 0.00 | 42 | 1013.3 |
| 20260508202526 | 66 | 300 | 0.0 | 3.5 | 0.00 | 0.00 | 0.00 | 43 | 1013.5 |
| 20260508202023 | 66 | 284 | 1.7 | 5.2 | 0.00 | 0.00 | 0.00 | 41 | 1013.5 |
| 20260508201520 | 66 | 302 | 0.9 | 5.2 | 0.00 | 0.00 | 0.00 | 42 | 1013.5 |